Time;durP1;ratioP1;P1;durP2;ratioP2;P2;SDS_P1;SDS_P2;PMS_P1;PMS_P2;Temp;Humidity;BMP_temperature;BMP_pressure;BME280_temperature;BME280_humidity;BME280_pressure;Samples;Min_cycle;Max_cycle;Signal;HPM_P1;HPM_P2
2022/07/23 00:00:33;;;;;;;9.00;5.72;;;23.60;99.20;;;;;;4989691;28;20026;-73
2022/07/23 00:03:01;;;;;;;7.05;6.00;;;23.60;98.90;;;;;;4992036;28;20023;-74
2022/07/23 00:05:27;;;;;;;7.53;6.10;;;23.60;99.00;;;;;;4986709;28;21195;-73
2022/07/23 00:07:53;;;;;;;6.97;5.18;;;23.50;98.50;;;;;;4990231;28;20033;-73
2022/07/23 00:10:24;;;;;;;7.97;6.10;;;23.50;98.70;;;;;;4987896;28;20031;-74
2022/07/23 00:12:50;;;;;;;6.72;5.65;;;23.40;98.80;;;;;;4990089;28;20030;-73
2022/07/23 00:15:16;;;;;;;6.78;6.07;;;23.30;98.30;;;;;;4991895;28;20033;-73
2022/07/23 00:17:41;;;;;;;7.00;5.80;;;23.30;98.20;;;;;;4993193;28;20479;-73
2022/07/23 00:20:07;;;;;;;8.85;5.68;;;23.30;98.30;;;;;;4994051;28;20558;-73
2022/07/23 00:22:36;;;;;;;6.18;5.32;;;23.30;98.10;;;;;;4988036;28;20031;-73
2022/07/23 00:25:02;;;;;;;7.38;5.30;;;23.30;97.40;;;;;;4988425;28;20077;-73
2022/07/23 00:27:27;;;;;;;6.80;5.43;;;23.30;97.10;;;;;;4991352;28;20030;-73
2022/07/23 00:29:53;;;;;;;6.97;5.57;;;23.30;96.90;;;;;;4994350;28;20026;-73
2022/07/23 00:32:19;;;;;;;8.48;5.30;;;23.30;96.80;;;;;;4998833;28;20022;-72
2022/07/23 00:34:44;;;;;;;6.85;5.53;;;23.20;96.80;;;;;;4991245;28;20042;-73
2022/07/23 00:37:16;;;;;;;7.97;5.90;;;23.20;96.60;;;;;;4992492;28;20026;-73
2022/07/23 00:39:51;;;;;;;8.18;6.00;;;23.20;96.90;;;;;;4992159;28;20041;-73
2022/07/23 00:42:25;;;;;;;6.63;4.90;;;23.20;96.80;;;;;;4991198;28;20030;-73
2022/07/23 00:44:51;;;;;;;7.82;5.68;;;23.20;97.60;;;;;;4992617;28;20554;-73
2022/07/23 00:47:16;;;;;;;5.93;4.65;;;23.20;97.20;;;;;;4991518;28;20030;-73
2022/07/23 00:49:42;;;;;;;6.28;5.05;;;23.20;98.10;;;;;;4993092;28;20037;-73
2022/07/23 00:52:10;;;;;;;6.82;5.70;;;23.20;97.40;;;;;;4991261;28;20030;-73
2022/07/23 00:54:36;;;;;;;8.32;5.30;;;23.20;97.30;;;;;;4992471;28;20523;-73
2022/07/23 00:57:02;;;;;;;8.13;5.40;;;23.20;97.50;;;;;;4990444;28;20034;-72
2022/07/23 00:59:28;;;;;;;7.20;6.20;;;23.20;97.40;;;;;;5021942;28;20022;-72
2022/07/23 01:02:00;;;;;;;7.93;5.88;;;23.10;97.60;;;;;;4994323;28;20081;-73
2022/07/23 01:04:26;;;;;;;6.72;5.68;;;23.10;97.90;;;;;;4995620;28;20140;-72
2022/07/23 01:06:52;;;;;;;7.38;5.82;;;23.10;98.30;;;;;;4994012;28;20108;-72
2022/07/23 01:09:18;;;;;;;8.57;6.18;;;23.10;98.50;;;;;;4996436;28;20395;-73
2022/07/23 01:11:43;;;;;;;8.82;6.25;;;23.10;98.80;;;;;;4989866;28;20494;-72
2022/07/23 01:14:13;;;;;;;7.78;6.25;;;23.10;99.00;;;;;;4991489;28;20041;-72
2022/07/23 01:16:43;;;;;;;6.55;5.85;;;23.10;99.60;;;;;;4989948;28;20088;-72
2022/07/23 01:19:09;;;;;;;6.72;5.60;;;23.10;99.90;;;;;;4990931;28;20117;-71
2022/07/23 01:21:37;;;;;;;8.07;6.00;;;23.00;99.90;;;;;;4989507;28;20033;-73
2022/07/23 01:24:03;;;;;;;7.72;6.05;;;23.00;99.90;;;;;;4990946;28;20483;-72
2022/07/23 01:26:29;;;;;;;8.25;6.18;;;23.00;99.90;;;;;;4988307;28;20056;-73
2022/07/23 01:28:55;;;;;;;7.68;5.93;;;23.00;99.90;;;;;;4992095;28;20050;-72
2022/07/23 01:31:24;;;;;;;9.40;6.50;;;23.00;99.90;;;;;;4986302;28;20088;-74
2022/07/23 01:33:49;;;;;;;8.23;6.20;;;23.00;99.90;;;;;;4992657;28;20431;-74
2022/07/23 01:36:18;;;;;;;7.10;5.97;;;23.00;99.90;;;;;;4990713;28;20022;-73
2022/07/23 01:38:44;;;;;;;7.57;5.63;;;22.90;99.90;;;;;;4997305;28;20510;-73
2022/07/23 01:41:10;;;;;;;9.57;6.75;;;22.90;99.90;;;;;;4990088;28;20563;-72
2022/07/23 01:43:35;;;;;;;7.72;5.70;;;22.90;99.90;;;;;;4992849;28;20161;-72
2022/07/23 01:46:01;;;;;;;8.05;5.88;;;22.90;99.90;;;;;;4989501;28;20018;-72
2022/07/23 01:48:27;;;;;;;6.60;5.32;;;22.80;99.90;;;;;;5006070;28;20529;-72
2022/07/23 01:50:55;;;;;;;7.53;5.07;;;22.80;99.90;;;;;;4995889;28;20398;-72
2022/07/23 01:53:21;;;;;;;5.97;5.38;;;22.70;99.90;;;;;;4994039;28;20032;-73
2022/07/23 01:55:47;;;;;;;6.75;5.70;;;22.70;99.90;;;;;;4992741;28;20037;-72
2022/07/23 01:58:12;;;;;;;9.10;5.35;;;22.70;99.90;;;;;;4993125;28;20026;-73
2022/07/23 02:00:41;;;;;;;7.10;5.40;;;22.60;99.90;;;;;;4986819;28;20054;-73
2022/07/23 02:03:09;;;;;;;7.82;4.97;;;22.60;99.90;;;;;;4992827;28;20054;-72
2022/07/23 02:05:36;;;;;;;6.53;5.25;;;22.60;99.90;;;;;;4993000;28;20140;-73
2022/07/23 02:08:10;;;;;;;6.07;4.53;;;22.60;99.70;;;;;;4991418;28;20905;-73
2022/07/23 02:10:42;;;;;;;5.72;4.88;;;22.60;99.40;;;;;;4990376;28;20562;-73
2022/07/23 02:13:07;;;;;;;6.60;5.03;;;22.60;99.40;;;;;;4988450;28;20114;-72
2022/07/23 02:15:39;;;;;;;5.60;4.95;;;22.60;99.10;;;;;;4991765;28;20459;-72
2022/07/23 02:18:05;;;;;;;7.40;5.25;;;22.60;99.10;;;;;;4989421;28;20026;-71
2022/07/23 02:20:31;;;;;;;7.47;5.15;;;22.60;99.40;;;;;;4996704;28;20022;-73
2022/07/23 02:22:56;;;;;;;6.70;5.43;;;22.60;99.80;;;;;;4990032;28;20534;-77
2022/07/23 02:25:22;;;;;;;10.60;5.78;;;22.60;99.50;;;;;;4989683;28;20487;-77
2022/07/23 02:27:54;;;;;;;5.90;5.28;;;22.60;99.20;;;;;;4988552;28;20113;-76
2022/07/23 02:30:19;;;;;;;6.13;5.35;;;22.60;99.00;;;;;;4990822;28;20034;-76
2022/07/23 02:32:48;;;;;;;7.38;5.35;;;22.60;98.90;;;;;;4989656;28;20360;-76
2022/07/23 02:35:13;;;;;;;7.25;5.18;;;22.60;98.80;;;;;;4991093;28;20558;-76
2022/07/23 02:37:39;;;;;;;6.28;5.15;;;22.60;98.40;;;;;;4989851;28;20109;-76
2022/07/23 02:40:17;;;;;;;6.25;5.60;;;22.60;97.90;;;;;;4992381;28;20029;-78
2022/07/23 02:42:46;;;;;;;7.68;5.10;;;22.60;98.20;;;;;;4989249;28;20495;-76
2022/07/23 02:45:15;;;;;;;7.15;5.20;;;22.50;99.10;;;;;;4990902;28;20022;-76
2022/07/23 02:47:40;;;;;;;7.05;5.65;;;22.60;99.20;;;;;;4989534;28;20550;-76
2022/07/23 02:50:12;;;;;;;5.65;4.93;;;22.50;99.50;;;;;;4989876;28;20030;-75
2022/07/23 02:52:41;;;;;;;6.97;5.43;;;22.50;99.50;;;;;;4988490;28;20030;-76
2022/07/23 02:55:10;;;;;;;8.07;6.18;;;22.50;99.80;;;;;;5000285;28;20085;-76
2022/07/23 02:57:39;;;;;;;6.22;5.43;;;22.50;99.90;;;;;;4985813;28;20604;-77
2022/07/23 03:00:06;;;;;;;7.55;6.70;;;22.50;99.90;;;;;;4987531;28;20062;-76
2022/07/23 03:02:35;;;;;;;8.88;6.45;;;22.50;99.90;;;;;;4990592;28;20105;-77
2022/07/23 03:05:01;;;;;;;6.40;5.78;;;22.50;99.90;;;;;;4991831;28;20018;-76
2022/07/23 03:07:26;;;;;;;9.85;6.53;;;22.50;99.90;;;;;;4989631;28;20542;-77
2022/07/23 03:09:52;;;;;;;8.65;6.05;;;22.40;99.90;;;;;;4997176;28;20030;-77
2022/07/23 03:12:18;;;;;;;8.60;6.45;;;22.40;99.90;;;;;;4991406;28;20054;-77
2022/07/23 03:14:43;;;;;;;6.40;5.60;;;22.40;99.90;;;;;;5004000;28;20438;-77
2022/07/23 03:17:09;;;;;;;6.95;5.40;;;22.40;99.90;;;;;;4987455;28;20049;-75
2022/07/23 03:19:38;;;;;;;7.57;5.80;;;22.40;99.90;;;;;;4989014;28;20117;-77
2022/07/23 03:22:05;;;;;;;8.07;6.20;;;22.40;99.90;;;;;;4987109;28;20018;-74
2022/07/23 03:27:26;;;;;;;10.95;6.10;;;22.30;99.90;;;;;;4988691;28;20065;-77
2022/07/23 03:29:53;;;;;;;6.95;6.25;;;22.30;99.90;;;;;;4987389;28;20026;-76
2022/07/23 03:32:20;;;;;;;10.00;6.30;;;22.20;99.90;;;;;;4988394;28;20469;-77
2022/07/23 03:34:46;;;;;;;7.10;6.22;;;22.20;99.90;;;;;;4990052;28;20597;-76
2022/07/23 03:37:11;;;;;;;10.90;6.07;;;22.20;99.90;;;;;;4986464;28;20026;-77
2022/07/23 03:39:37;;;;;;;7.50;6.57;;;22.10;99.90;;;;;;4990591;28;20092;-76
2022/07/23 03:42:03;;;;;;;8.10;5.10;;;22.10;99.90;;;;;;5005461;28;20469;-77
2022/07/23 03:44:32;;;;;;;8.38;6.63;;;22.00;99.90;;;;;;4989107;28;20093;-77
2022/07/23 03:46:57;;;;;;;6.82;5.72;;;22.00;99.90;;;;;;4988056;28;20026;-77
2022/07/23 03:49:23;;;;;;;8.27;5.63;;;22.00;99.90;;;;;;4990327;28;20018;-77
2022/07/23 03:51:49;;;;;;;8.20;5.68;;;21.90;99.90;;;;;;4991353;28;20026;-77
2022/07/23 03:54:14;;;;;;;8.63;5.63;;;21.90;99.90;;;;;;4989416;28;20571;-75
2022/07/23 03:56:40;;;;;;;9.63;6.57;;;21.90;99.90;;;;;;4991598;28;20128;-77
2022/07/23 03:59:06;;;;;;;11.52;6.15;;;21.90;99.90;;;;;;4990852;28;20018;-77
2022/07/23 04:01:32;;;;;;;8.43;6.18;;;21.90;99.90;;;;;;4989775;28;20495;-77
2022/07/23 04:03:58;;;;;;;7.25;6.13;;;21.80;99.90;;;;;;4992686;28;20014;-77
2022/07/23 04:06:23;;;;;;;8.00;6.50;;;21.80;99.90;;;;;;4990119;28;20030;-76
2022/07/23 04:08:55;;;;;;;8.95;6.05;;;21.80;99.90;;;;;;4997796;28;20475;-75
2022/07/23 04:11:21;;;;;;;8.38;6.70;;;21.80;99.90;;;;;;4995786;28;20031;-77
2022/07/23 04:13:50;;;;;;;7.65;6.40;;;21.80;99.90;;;;;;4993397;28;20121;-76
2022/07/23 04:16:21;;;;;;;8.32;6.32;;;21.90;99.90;;;;;;4991457;28;20030;-77
2022/07/23 04:18:47;;;;;;;10.27;6.80;;;21.80;99.90;;;;;;4997342;28;20034;-79
2022/07/23 04:21:13;;;;;;;9.38;6.47;;;21.90;99.90;;;;;;4990778;28;20019;-77
2022/07/23 04:23:38;;;;;;;8.63;6.35;;;21.90;99.90;;;;;;4989568;28;20041;-77
2022/07/23 04:26:07;;;;;;;9.02;6.22;;;21.90;99.90;;;;;;5019441;28;20034;-75
2022/07/23 04:28:38;;;;;;;7.53;6.43;;;21.90;99.90;;;;;;4989475;28;20510;-77
2022/07/23 04:31:04;;;;;;;9.23;6.70;;;21.90;99.90;;;;;;4989432;28;20037;-76
2022/07/23 04:33:30;;;;;;;7.75;6.25;;;21.90;99.90;;;;;;4996530;28;20360;-76
2022/07/23 04:35:55;;;;;;;7.82;7.03;;;21.90;99.90;;;;;;4988362;28;20030;-77
2022/07/23 04:38:21;;;;;;;11.73;6.22;;;21.90;99.90;;;;;;4988378;28;20121;-77
2022/07/23 04:40:47;;;;;;;11.88;6.90;;;21.90;99.90;;;;;;5001051;28;20029;-76
2022/07/23 04:43:12;;;;;;;14.73;7.05;;;21.90;99.90;;;;;;4988164;28;20030;-77
2022/07/23 04:45:41;;;;;;;9.75;6.70;;;22.00;99.90;;;;;;4987486;28;20061;-77
2022/07/23 04:48:06;;;;;;;9.98;6.60;;;22.10;99.90;;;;;;4983957;28;20063;-76
2022/07/23 04:50:32;;;;;;;6.78;6.03;;;22.10;99.90;;;;;;4985608;28;20157;-77
2022/07/23 04:52:58;;;;;;;8.98;6.35;;;22.20;99.90;;;;;;4986204;28;20482;-77
2022/07/23 04:55:23;;;;;;;9.27;7.18;;;22.20;99.90;;;;;;4992079;28;20499;-77
2022/07/23 04:57:55;;;;;;;8.63;6.60;;;22.20;99.90;;;;;;4993364;28;20033;-76
2022/07/23 05:00:20;;;;;;;7.43;5.82;;;22.30;99.90;;;;;;4989479;28;20048;-77
2022/07/23 05:02:46;;;;;;;8.95;6.60;;;22.40;99.90;;;;;;4995255;28;20026;-77
2022/07/23 05:05:15;;;;;;;11.35;6.68;;;22.50;99.90;;;;;;4998415;28;20022;-77
2022/07/23 05:07:43;;;;;;;7.97;5.97;;;22.50;99.90;;;;;;5001800;28;20395;-77
2022/07/23 05:10:09;;;;;;;8.93;6.47;;;22.50;99.90;;;;;;4999820;28;20034;-77
2022/07/23 05:12:37;;;;;;;9.85;6.68;;;22.60;99.90;;;;;;4999692;28;20073;-77
2022/07/23 05:15:03;;;;;;;9.85;6.13;;;22.60;99.90;;;;;;4991169;28;20041;-73
2022/07/23 05:17:29;;;;;;;8.07;6.50;;;22.60;99.90;;;;;;4990543;28;20476;-73
2022/07/23 05:19:54;;;;;;;9.25;7.03;;;22.60;99.90;;;;;;4991637;28;20487;-73
2022/07/23 05:22:20;;;;;;;10.68;6.32;;;22.60;99.90;;;;;;4989760;28;20045;-72
2022/07/23 05:24:46;;;;;;;10.07;5.97;;;22.60;99.90;;;;;;4987160;28;20057;-74
2022/07/23 05:27:11;;;;;;;10.68;6.55;;;22.60;99.90;;;;;;4990817;28;20068;-74
2022/07/23 05:29:37;;;;;;;8.93;6.10;;;22.60;99.90;;;;;;4986763;28;20128;-73
2022/07/23 05:32:09;;;;;;;9.77;6.38;;;22.60;99.90;;;;;;4989803;28;20018;-72
2022/07/23 05:34:34;;;;;;;7.85;6.85;;;22.60;99.90;;;;;;4988888;28;20037;-72
2022/07/23 05:37:00;;;;;;;7.88;6.47;;;22.60;99.90;;;;;;4991892;28;20507;-72
2022/07/23 05:39:25;;;;;;;8.43;6.90;;;22.60;99.90;;;;;;4987954;28;20031;-72
2022/07/23 05:41:54;;;;;;;7.25;6.25;;;22.70;99.90;;;;;;4988160;28;20026;-72
2022/07/23 05:44:20;;;;;;;9.15;6.57;;;22.80;99.90;;;;;;4993664;28;20039;-73
2022/07/23 05:46:52;;;;;;;9.23;6.68;;;22.90;99.90;;;;;;4993033;28;20023;-72
2022/07/23 05:49:17;;;;;;;7.20;6.10;;;23.10;99.90;;;;;;4989005;28;24715;-76
2022/07/23 05:51:43;;;;;;;20.08;7.05;;;23.20;99.90;;;;;;4993128;28;20105;-77
2022/07/23 05:54:08;;;;;;;8.07;5.95;;;23.40;99.90;;;;;;4993575;28;20344;-77
2022/07/23 05:56:34;;;;;;;8.45;6.40;;;23.50;99.90;;;;;;4992674;28;20022;-76
2022/07/23 05:59:00;;;;;;;7.78;6.72;;;23.70;99.90;;;;;;4991275;28;20073;-76
2022/07/23 06:01:25;;;;;;;9.60;6.57;;;23.80;99.90;;;;;;5008239;28;20038;-76
2022/07/23 06:03:51;;;;;;;8.15;6.38;;;24.00;99.90;;;;;;4993236;28;20431;-76
2022/07/23 06:06:16;;;;;;;8.80;7.00;;;24.10;99.90;;;;;;4991023;28;20411;-72
2022/07/23 06:08:42;;;;;;;9.82;6.97;;;24.20;99.80;;;;;;4993801;28;20026;-76
2022/07/23 06:11:08;;;;;;;9.88;5.95;;;24.30;99.30;;;;;;4989175;28;20026;-75
2022/07/23 06:13:33;;;;;;;8.85;6.22;;;24.50;99.00;;;;;;4992689;28;20427;-73
2022/07/23 06:15:59;;;;;;;10.80;7.10;;;24.60;98.60;;;;;;4994594;28;20097;-75
2022/07/23 06:18:25;;;;;;;9.20;6.32;;;24.70;97.80;;;;;;4993187;28;20475;-74
2022/07/23 06:20:50;;;;;;;9.40;6.65;;;24.80;97.40;;;;;;4991357;28;20495;-74
2022/07/23 06:23:16;;;;;;;7.65;5.70;;;24.90;97.20;;;;;;4993871;28;20037;-72
2022/07/23 06:25:42;;;;;;;7.93;6.03;;;25.00;96.80;;;;;;4994710;28;20061;-74
2022/07/23 06:28:09;;;;;;;7.82;5.57;;;25.20;96.50;;;;;;4993734;28;20108;-75
2022/07/23 06:30:34;;;;;;;6.90;6.13;;;25.30;96.40;;;;;;4993722;28;20030;-75
2022/07/23 06:33:09;;;;;;;6.95;6.18;;;25.40;95.70;;;;;;4993673;28;20543;-75
2022/07/23 06:35:38;;;;;;;8.32;5.90;;;25.50;95.30;;;;;;4992444;28;20031;-75
2022/07/23 06:38:03;;;;;;;6.25;5.60;;;25.60;94.90;;;;;;4993403;28;20034;-75
2022/07/23 06:40:29;;;;;;;7.30;5.93;;;25.70;94.70;;;;;;4993358;28;20022;-75
2022/07/23 06:42:58;;;;;;;7.95;5.95;;;25.70;94.50;;;;;;4993314;28;20030;-76
2022/07/23 06:45:23;;;;;;;7.80;5.95;;;25.70;94.10;;;;;;4993602;28;20027;-74
2022/07/23 06:47:49;;;;;;;8.25;6.00;;;25.80;94.00;;;;;;4993523;28;20026;-74
2022/07/23 06:50:14;;;;;;;6.85;5.45;;;25.80;93.60;;;;;;4993003;28;20053;-75
2022/07/23 06:52:40;;;;;;;5.97;5.38;;;25.90;93.70;;;;;;4993250;28;20049;-75
2022/07/23 06:55:09;;;;;;;6.85;6.22;;;26.10;93.70;;;;;;4993203;28;20035;-75
2022/07/23 06:57:35;;;;;;;8.68;6.40;;;26.10;93.30;;;;;;4984994;28;20018;-76
2022/07/23 07:00:04;;;;;;;6.78;6.07;;;26.20;93.20;;;;;;4991887;28;20026;-75
2022/07/23 07:02:30;;;;;;;7.30;6.35;;;26.10;93.00;;;;;;4993064;28;20106;-75
2022/07/23 07:04:56;;;;;;;8.07;6.70;;;26.20;93.00;;;;;;4992537;28;20058;-75
2022/07/23 07:07:27;;;;;;;6.97;5.88;;;26.10;92.90;;;;;;4993066;28;20030;-75
2022/07/23 07:09:53;;;;;;;9.98;6.57;;;26.20;92.80;;;;;;4990899;28;20097;-75
2022/07/23 07:12:19;;;;;;;8.27;6.07;;;26.20;93.10;;;;;;5007891;28;20064;-75
2022/07/23 07:14:44;;;;;;;8.60;6.65;;;26.20;93.30;;;;;;4993083;28;20041;-75
2022/07/23 07:17:13;;;;;;;7.18;6.20;;;26.20;93.40;;;;;;4992831;28;20030;-75
2022/07/23 07:19:38;;;;;;;12.45;6.55;;;26.20;93.20;;;;;;4991563;28;20022;-75
2022/07/23 07:22:07;;;;;;;12.70;6.20;;;26.20;93.30;;;;;;4992690;28;20030;-75
2022/07/23 07:24:38;;;;;;;6.97;5.38;;;26.20;93.50;;;;;;4992424;28;20031;-75
2022/07/23 07:27:04;;;;;;;7.30;6.50;;;26.00;93.50;;;;;;4992771;28;20022;-75
2022/07/23 07:29:36;;;;;;;7.40;5.45;;;26.00;93.60;;;;;;4995907;28;20026;-75
2022/07/23 07:32:02;;;;;;;6.70;5.72;;;26.00;92.90;;;;;;4992879;28;20053;-74
2022/07/23 07:34:28;;;;;;;7.18;6.35;;;25.90;92.90;;;;;;4991626;28;20061;-75
2022/07/23 07:36:56;;;;;;;7.95;6.03;;;26.00;92.70;;;;;;4992796;28;20034;-75
2022/07/23 07:39:25;;;;;;;7.82;5.82;;;26.00;92.70;;;;;;4992939;28;20035;-75
2022/07/23 07:41:53;;;;;;;10.70;6.25;;;26.00;92.80;;;;;;4992857;28;20030;-75
2022/07/23 07:44:25;;;;;;;6.55;5.75;;;26.10;92.50;;;;;;4991592;28;20387;-75
2022/07/23 07:46:56;;;;;;;7.68;5.55;;;26.20;92.30;;;;;;4992608;28;20403;-75
2022/07/23 07:49:23;;;;;;;6.00;5.35;;;26.10;91.50;;;;;;4991991;28;20061;-75
2022/07/23 07:51:49;;;;;;;7.65;5.70;;;26.10;91.70;;;;;;4994069;28;20046;-75
2022/07/23 07:54:21;;;;;;;7.60;5.90;;;26.10;91.70;;;;;;4997760;28;20061;-75
2022/07/23 07:56:48;;;;;;;7.35;5.95;;;26.10;91.80;;;;;;4986113;28;20029;-74
2022/07/23 07:59:17;;;;;;;6.63;5.32;;;26.10;91.70;;;;;;4992730;28;20026;-75
2022/07/23 08:01:42;;;;;;;6.35;5.30;;;26.10;91.40;;;;;;4991597;28;20101;-75
2022/07/23 08:04:08;;;;;;;6.03;5.40;;;26.20;90.90;;;;;;4992345;28;20094;-75
2022/07/23 08:06:34;;;;;;;5.82;5.13;;;26.20;90.50;;;;;;4992073;28;20128;-75
2022/07/23 08:09:02;;;;;;;5.78;4.57;;;26.20;90.30;;;;;;4991967;28;20519;-75
2022/07/23 08:11:28;;;;;;;6.53;5.47;;;26.20;90.20;;;;;;4992193;28;20038;-75
2022/07/23 08:13:53;;;;;;;6.82;4.63;;;26.30;90.00;;;;;;4992372;28;20380;-75
2022/07/23 08:16:19;;;;;;;6.70;5.28;;;26.30;90.00;;;;;;4984357;28;20491;-74
2022/07/23 08:18:48;;;;;;;9.07;5.78;;;26.40;90.20;;;;;;4993617;28;20158;-76
2022/07/23 08:21:13;;;;;;;6.68;5.55;;;26.40;90.50;;;;;;4990245;28;20027;-73
2022/07/23 08:23:39;;;;;;;5.55;4.78;;;26.40;90.00;;;;;;4981658;28;20486;-72
2022/07/23 08:26:05;;;;;;;5.88;4.90;;;26.40;88.80;;;;;;4985394;28;20025;-73
2022/07/23 08:28:32;;;;;;;6.30;5.70;;;26.40;87.80;;;;;;4987512;28;20055;-73
2022/07/23 08:30:59;;;;;;;9.13;6.43;;;26.40;89.40;;;;;;4989278;28;20499;-73
2022/07/23 08:33:25;;;;;;;7.00;5.32;;;26.40;90.70;;;;;;4988567;28;20427;-73
2022/07/23 08:35:52;;;;;;;6.45;5.85;;;26.30;91.30;;;;;;4988225;28;20113;-72
2022/07/23 08:38:20;;;;;;;6.70;5.82;;;26.20;91.50;;;;;;4985424;28;20054;-73
2022/07/23 08:40:51;;;;;;;7.03;5.90;;;26.30;91.60;;;;;;4987916;28;20037;-72
2022/07/23 08:43:28;;;;;;;7.28;6.47;;;26.30;91.60;;;;;;4990054;28;20025;-72
2022/07/23 08:45:56;;;;;;;9.38;6.45;;;26.30;91.70;;;;;;4987927;28;20109;-73
2022/07/23 08:48:24;;;;;;;7.80;6.10;;;26.40;91.90;;;;;;4993480;28;20034;-73
2022/07/23 08:50:52;;;;;;;7.60;5.97;;;26.40;91.60;;;;;;4992315;28;20048;-73
2022/07/23 08:53:19;;;;;;;9.18;6.50;;;26.40;91.50;;;;;;4992100;28;20475;-72
2022/07/23 08:55:46;;;;;;;6.78;5.57;;;26.40;91.50;;;;;;4984565;28;20526;-73
2022/07/23 08:58:12;;;;;;;7.55;5.85;;;26.50;91.60;;;;;;4988530;28;20113;-72
2022/07/23 09:00:38;;;;;;;7.15;6.45;;;26.60;91.00;;;;;;4991163;28;20034;-73
2022/07/23 09:03:04;;;;;;;8.10;6.00;;;26.70;90.80;;;;;;5006632;28;20026;-73
2022/07/23 09:05:29;;;;;;;9.05;6.35;;;26.80;90.40;;;;;;4992635;28;20113;-73
2022/07/23 09:08:15;;;;;;;6.63;5.93;;;26.80;89.70;;;;;;4991321;28;20030;-72
2022/07/23 09:10:46;;;;;;;7.03;5.82;;;26.80;89.70;;;;;;4986749;28;20124;-72
2022/07/23 09:13:31;;;;;;;8.13;5.97;;;26.80;89.20;;;;;;4986512;28;20387;-73
2022/07/23 09:16:00;;;;;;;6.78;5.85;;;26.90;89.40;;;;;;4989336;28;20030;-73
2022/07/23 09:18:34;;;;;;;8.90;6.13;;;26.80;88.60;;;;;;4991037;28;20026;-72
2022/07/23 09:21:12;;;;;;;7.30;6.40;;;27.00;88.30;;;;;;4999352;28;20173;-72
2022/07/23 09:23:46;;;;;;;7.57;6.60;;;26.90;90.10;;;;;;4991577;28;20022;-73
2022/07/23 09:26:29;;;;;;;8.98;7.47;;;27.00;90.50;;;;;;4990725;28;20022;-73
2022/07/23 09:29:07;;;;;;;7.80;6.60;;;26.90;90.80;;;;;;4992783;28;20022;-73
2022/07/23 09:31:47;;;;;;;7.70;6.90;;;26.80;91.00;;;;;;5004880;28;20578;-73
2022/07/23 09:34:40;;;;;;;8.07;7.03;;;26.80;91.20;;;;;;4992433;28;20038;-73
2022/07/23 09:37:13;;;;;;;7.10;6.25;;;26.70;90.90;;;;;;4987383;28;20954;-73
2022/07/23 09:39:39;;;;;;;9.02;6.97;;;26.70;90.60;;;;;;4981747;28;20792;-72
2022/07/23 09:42:16;;;;;;;7.63;6.75;;;26.70;90.60;;;;;;4985177;28;20035;-73
2022/07/23 09:44:44;;;;;;;8.95;6.70;;;26.70;90.60;;;;;;4992880;28;20101;-74
2022/07/23 09:47:09;;;;;;;8.52;6.85;;;26.70;90.80;;;;;;4984056;28;20120;-74
2022/07/23 09:49:38;;;;;;;9.55;6.53;;;26.80;90.70;;;;;;4987979;28;20435;-73
2022/07/23 09:52:05;;;;;;;7.30;6.15;;;26.90;90.40;;;;;;4984601;28;20515;-72
2022/07/23 09:54:36;;;;;;;7.47;6.10;;;27.00;90.20;;;;;;4983996;28;20050;-74
2022/07/23 09:57:16;;;;;;;6.85;6.00;;;27.10;89.60;;;;;;4986673;28;20022;-74
2022/07/23 09:59:47;;;;;;;7.13;6.40;;;27.20;89.30;;;;;;4984354;28;20066;-73
2022/07/23 10:02:14;;;;;;;11.05;7.20;;;27.20;89.40;;;;;;4984698;28;20030;-74
2022/07/23 10:04:43;;;;;;;9.18;6.63;;;27.20;89.50;;;;;;4991252;28;20455;-74
2022/07/23 10:07:10;;;;;;;7.88;6.13;;;27.10;89.40;;;;;;4991408;28;20029;-74
2022/07/23 10:09:38;;;;;;;7.38;5.80;;;27.10;89.90;;;;;;4991893;28;20121;-74
2022/07/23 10:14:44;;;;;;;8.20;6.60;;;27.00;89.50;;;;;;4990011;28;20085;-74
2022/07/23 10:17:13;;;;;;;7.05;6.07;;;26.90;89.40;;;;;;4987136;28;20491;-74
2022/07/23 10:19:43;;;;;;;9.05;6.78;;;26.90;89.40;;;;;;4992795;28;20032;-74
2022/07/23 10:22:33;;;;;;;9.65;6.93;;;26.90;89.20;;;;;;4993226;28;20014;-74
2022/07/23 10:25:31;;;;;;;9.65;6.88;;;27.00;89.70;;;;;;4993681;28;20026;-74
2022/07/23 10:28:21;;;;;;;6.88;6.18;;;27.10;89.40;;;;;;5004139;28;20395;-74
2022/07/23 10:31:15;;;;;;;8.73;6.40;;;27.20;88.60;;;;;;5003947;28;20033;-74
2022/07/23 10:33:49;;;;;;;8.27;6.10;;;27.30;88.00;;;;;;4999691;28;20018;-74
2022/07/23 10:36:29;;;;;;;7.35;6.63;;;27.20;88.00;;;;;;4990720;28;20099;-74
2022/07/23 10:39:05;;;;;;;7.57;6.38;;;27.30;87.80;;;;;;4992233;28;20022;-74
2022/07/23 10:41:36;;;;;;;7.85;6.38;;;27.40;87.70;;;;;;4992485;28;20022;-74
2022/07/23 10:44:12;;;;;;;7.85;6.43;;;27.50;87.60;;;;;;4989760;28;20125;-74
2022/07/23 10:50:18;;;;;;;9.43;7.55;;;27.50;87.00;;;;;;4983670;28;20048;-74
2022/07/23 10:53:12;;;;;;;7.75;6.72;;;27.40;86.80;;;;;;4989806;28;20026;-74
2022/07/23 10:55:37;;;;;;;8.00;6.57;;;27.40;87.20;;;;;;4986098;28;20626;-74
2022/07/23 10:58:05;;;;;;;7.90;6.35;;;27.50;87.40;;;;;;4992461;28;20105;-74
2022/07/23 11:00:32;;;;;;;8.25;6.75;;;27.60;87.70;;;;;;4991694;28;20472;-74
2022/07/23 11:03:00;;;;;;;10.35;7.18;;;27.70;87.20;;;;;;4987380;28;20077;-74
2022/07/23 11:05:45;;;;;;;9.73;6.35;;;27.60;87.30;;;;;;4985302;28;20030;-74
2022/07/23 11:08:19;;;;;;;8.80;6.78;;;27.70;86.70;;;;;;4984368;28;20026;-74
2022/07/23 11:11:11;;;;;;;9.18;7.00;;;27.80;86.70;;;;;;4987679;28;20498;-74
2022/07/23 11:13:46;;;;;;;8.52;7.00;;;27.70;86.20;;;;;;4987887;28;20050;-74
2022/07/23 11:16:30;;;;;;;7.47;6.68;;;27.60;85.90;;;;;;4992994;28;20227;-74
2022/07/23 11:18:58;;;;;;;8.38;7.07;;;27.60;86.40;;;;;;4988694;28;20177;-74
2022/07/23 11:21:26;;;;;;;8.45;6.68;;;27.60;86.60;;;;;;4992048;28;20042;-74
2022/07/23 11:24:09;;;;;;;9.35;6.80;;;27.60;86.80;;;;;;4985778;28;20023;-74
2022/07/23 11:26:43;;;;;;;7.50;6.80;;;27.60;86.20;;;;;;4992022;28;20019;-74
2022/07/23 11:29:27;;;;;;;7.40;5.97;;;27.60;85.50;;;;;;4986800;28;20383;-74
2022/07/23 11:32:49;;;;;;;8.38;7.00;;;27.70;85.80;;;;;;4985108;28;20014;-74
2022/07/23 11:35:25;;;;;;;9.10;6.72;;;27.70;85.50;;;;;;4986131;28;20404;-74
2022/07/23 11:37:53;;;;;;;7.30;6.38;;;27.80;85.00;;;;;;4983171;28;20022;-72
2022/07/23 11:40:19;;;;;;;8.32;7.20;;;27.80;84.80;;;;;;4990228;28;20022;-72
2022/07/23 11:42:57;;;;;;;7.90;7.10;;;27.80;85.10;;;;;;4987189;28;20025;-72
2022/07/23 11:45:24;;;;;;;7.82;6.55;;;27.90;85.00;;;;;;4988151;28;20044;-72
2022/07/23 11:47:50;;;;;;;8.07;7.28;;;27.90;84.10;;;;;;4986717;28;20035;-72
2022/07/23 11:50:16;;;;;;;7.45;6.63;;;27.70;83.70;;;;;;4988823;28;20080;-72
2022/07/23 11:52:42;;;;;;;7.28;6.57;;;27.70;84.00;;;;;;4986902;28;20034;-72
2022/07/23 11:55:09;;;;;;;8.60;6.68;;;27.70;84.00;;;;;;4990015;28;20296;-72
2022/07/23 11:57:41;;;;;;;7.72;6.57;;;27.70;83.70;;;;;;4991264;28;20045;-72
2022/07/23 12:00:11;;;;;;;7.30;5.97;;;27.70;84.00;;;;;;4988758;28;20019;-73
2022/07/23 12:02:47;;;;;;;9.95;6.70;;;27.80;83.30;;;;;;4987683;28;20122;-72
2022/07/23 12:05:15;;;;;;;8.50;7.07;;;27.80;83.40;;;;;;4982846;28;20034;-71
2022/07/23 12:07:44;;;;;;;7.65;6.72;;;27.80;84.10;;;;;;4990113;28;20027;-69
2022/07/23 12:10:29;;;;;;;9.55;7.18;;;27.80;84.20;;;;;;4992142;28;20018;-73
2022/07/23 12:13:06;;;;;;;7.68;6.85;;;27.80;84.20;;;;;;5007920;28;20053;-72
2022/07/23 12:15:51;;;;;;;12.07;7.50;;;27.80;83.60;;;;;;4992953;28;20078;-72
2022/07/23 12:18:20;;;;;;;20.02;12.00;;;27.70;83.30;;;;;;4990718;28;20117;-72
2022/07/23 12:20:49;;;;;;;8.65;7.65;;;27.70;83.60;;;;;;4991723;28;20022;-72
2022/07/23 12:23:23;;;;;;;8.68;6.72;;;27.70;83.50;;;;;;4992766;28;20030;-72
2022/07/23 12:25:50;;;;;;;9.77;6.88;;;27.70;84.30;;;;;;4993270;28;20113;-72
2022/07/23 12:28:28;;;;;;;7.90;7.07;;;27.80;83.60;;;;;;4994634;28;20026;-72
2022/07/23 12:30:55;;;;;;;7.78;6.90;;;27.90;83.40;;;;;;4988223;28;20496;-72
2022/07/23 12:33:22;;;;;;;8.27;6.93;;;27.90;82.60;;;;;;4985097;28;20035;-72
2022/07/23 12:35:54;;;;;;;9.15;6.80;;;27.90;81.90;;;;;;4985120;28;20394;-72
2022/07/23 12:38:22;;;;;;;8.93;6.85;;;27.90;81.00;;;;;;4989529;28;20030;-72
2022/07/23 12:40:50;;;;;;;7.82;6.65;;;27.90;81.60;;;;;;4987427;28;20034;-72
2022/07/23 12:43:29;;;;;;;9.50;7.00;;;28.00;81.50;;;;;;4994799;28;20523;-72
2022/07/23 12:46:07;;;;;;;7.13;6.43;;;28.00;81.50;;;;;;4987633;28;20025;-72
2022/07/23 12:48:49;;;;;;;7.53;6.72;;;28.00;80.30;;;;;;4992857;28;20058;-72
2022/07/23 12:51:17;;;;;;;7.72;6.20;;;28.10;80.40;;;;;;4986523;28;20493;-72
2022/07/23 12:53:54;;;;;;;7.60;6.60;;;28.10;79.10;;;;;;4985996;28;20496;-70
2022/07/23 12:56:26;;;;;;;7.68;6.47;;;28.10;78.90;;;;;;4986688;28;20108;-71
2022/07/23 12:59:18;;;;;;;8.52;6.60;;;28.20;79.50;;;;;;4991991;28;20046;-71
2022/07/23 13:02:00;;;;;;;7.38;6.40;;;28.30;79.40;;;;;;4982342;28;20034;-72
2022/07/23 13:04:26;;;;;;;8.23;6.28;;;28.30;79.00;;;;;;4989135;28;20383;-73